Terminal Aerodrome Forecast
Issued by NWS Denver/Boulder, CO

Home | Current Version | Previous Version | Text Only | Print | Product List | Glossary On
Versions: 1 2 3 4 5 6 7 8 9 10 11 12 13 14 15 16 17 18 19 20 21 22 23 24 25 26 27 28 29 30 31 32 33 34 35 36 37 38 39 40 41 42
000
FTUS45 KBOU 260056 AAA
TAFDEN
TAF AMD
KDEN 260056Z 2601/2706 28011KT P6SM FEW100 FEW220
     FM260200 24007KT P6SM FEW100 FEW220
     FM260300 21008KT P6SM FEW220
     FM261700 14008KT P6SM SCT220
     FM262100 09007KT P6SM FEW120 BKN200
     FM262300 35013KT P6SM FEW100 BKN140
     FM270400 25010KT P6SM SCT120 SCT200=

USA.gov is the U.S. government's official web portal to all federal, state and local government web resources and services.